Time;durP1;ratioP1;P1;durP2;ratioP2;P2;SDS_P1;SDS_P2;PMS_P1;PMS_P2;Temp;Humidity;BMP_temperature;BMP_pressure;BME280_temperature;BME280_humidity;BME280_pressure;Samples;Min_cycle;Max_cycle;Signal;HPM_P1;HPM_P2
2020/12/01 00:00:20;;;;;;;236.93;71.75;;;0.70;90.40;;;;;;5052390;28;20523;-70
2020/12/01 00:02:46;;;;;;;355.42;78.35;;;0.70;90.40;;;;;;5053617;28;20552;-70
2020/12/01 00:05:15;;;;;;;332.30;86.22;;;0.70;90.30;;;;;;5053032;28;20465;-69
2020/12/01 00:07:41;;;;;;;226.57;81.18;;;0.70;90.40;;;;;;5053305;28;20055;-71
2020/12/01 00:10:12;;;;;;;212.75;80.57;;;0.70;90.40;;;;;;5053637;28;20033;-70
2020/12/01 00:12:39;;;;;;;247.43;87.82;;;0.70;90.40;;;;;;5053445;28;20025;-70
2020/12/01 00:15:05;;;;;;;188.35;70.47;;;0.70;90.40;;;;;;5057438;28;20036;-70
2020/12/01 00:17:31;;;;;;;165.75;63.70;;;0.70;90.30;;;;;;5056400;28;20037;-70
2020/12/01 00:19:56;;;;;;;266.65;64.50;;;0.70;90.20;;;;;;5057300;28;20469;-70
2020/12/01 00:22:22;;;;;;;211.10;72.00;;;0.70;90.00;;;;;;5057873;28;20056;-70
2020/12/01 00:24:48;;;;;;;240.40;93.55;;;0.60;90.30;;;;;;5057520;28;20021;-69
2020/12/01 00:27:13;;;;;;;203.05;90.10;;;0.70;90.40;;;;;;5056184;28;20444;-69
2020/12/01 00:29:39;;;;;;;229.10;101.35;;;0.60;90.40;;;;;;5057642;28;20032;-69
2020/12/01 00:32:05;;;;;;;157.18;79.93;;;0.70;90.40;;;;;;5057392;28;20040;-69
2020/12/01 00:34:31;;;;;;;155.48;73.45;;;0.70;90.50;;;;;;5057321;28;20028;-70
2020/12/01 00:36:57;;;;;;;137.48;65.10;;;0.70;90.30;;;;;;5057236;28;20025;-71
2020/12/01 00:39:23;;;;;;;197.73;66.35;;;0.80;90.20;;;;;;5055961;28;20035;-69
2020/12/01 00:41:51;;;;;;;297.05;97.90;;;0.80;90.20;;;;;;5056894;28;20025;-69
2020/12/01 00:44:18;;;;;;;294.42;75.80;;;0.70;90.20;;;;;;5057403;28;20025;-69
2020/12/01 00:46:44;;;;;;;263.35;69.20;;;0.70;90.50;;;;;;5055614;28;20025;-69
2020/12/01 00:49:10;;;;;;;296.30;75.05;;;0.70;90.80;;;;;;5057372;28;20029;-70
2020/12/01 00:51:36;;;;;;;316.70;80.47;;;0.70;90.60;;;;;;5057072;28;20029;-70
2020/12/01 00:54:02;;;;;;;223.63;67.53;;;0.70;90.70;;;;;;5056732;28;20028;-70
2020/12/01 00:56:28;;;;;;;395.52;77.97;;;0.70;90.90;;;;;;5056462;28;20048;-69
2020/12/01 00:58:54;;;;;;;633.67;92.45;;;0.80;90.90;;;;;;5056448;28;20110;-70
2020/12/01 01:01:20;;;;;;;520.60;93.47;;;0.70;90.80;;;;;;5056239;28;20025;-69
2020/12/01 01:03:47;;;;;;;463.30;78.55;;;0.70;91.20;;;;;;5057092;28;20373;-69
2020/12/01 01:06:14;;;;;;;317.58;59.15;;;0.80;91.30;;;;;;5057047;28;20025;-70
2020/12/01 01:08:40;;;;;;;261.30;56.85;;;0.80;91.40;;;;;;5056426;28;20063;-70
2020/12/01 01:11:07;;;;;;;227.13;60.20;;;0.80;91.30;;;;;;5055428;28;20063;-69
2020/12/01 01:13:35;;;;;;;161.48;50.72;;;0.80;91.20;;;;;;5056630;28;20028;-70
2020/12/01 01:16:01;;;;;;;134.55;49.30;;;0.90;91.00;;;;;;5054979;28;20025;-68
2020/12/01 01:18:27;;;;;;;181.48;49.17;;;0.90;91.00;;;;;;5056180;28;20044;-69
2020/12/01 01:20:53;;;;;;;107.05;42.20;;;1.00;90.80;;;;;;5056592;28;20025;-70
2020/12/01 01:23:19;;;;;;;141.98;51.85;;;1.00;90.60;;;;;;5054864;28;20067;-69
2020/12/01 01:25:45;;;;;;;173.30;64.13;;;1.00;90.70;;;;;;5054206;28;20060;-69
2020/12/01 01:28:11;;;;;;;107.93;47.10;;;1.00;90.70;;;;;;5056366;28;20029;-69
2020/12/01 01:30:39;;;;;;;128.23;49.95;;;1.00;90.70;;;;;;5055985;28;20036;-69
2020/12/01 01:33:06;;;;;;;123.25;44.22;;;1.00;90.60;;;;;;5054983;28;20130;-69
2020/12/01 01:35:34;;;;;;;110.20;44.90;;;1.00;90.30;;;;;;5054979;28;20047;-69
2020/12/01 01:38:01;;;;;;;184.07;59.15;;;1.00;90.70;;;;;;5053659;28;20033;-69
2020/12/01 01:40:28;;;;;;;188.50;62.20;;;1.00;90.60;;;;;;5055359;28;20025;-69
2020/12/01 01:42:55;;;;;;;140.85;43.13;;;0.90;90.50;;;;;;5054639;28;20526;-70
2020/12/01 01:45:47;;;;;;;142.90;39.90;;;0.90;90.40;;;;;;5054993;28;20457;-69
2020/12/01 01:48:25;;;;;;;150.80;40.58;;;0.90;90.50;;;;;;5056279;28;20107;-70
2020/12/01 01:50:57;;;;;;;122.07;40.00;;;0.90;90.60;;;;;;5055800;28;20032;-69
2020/12/01 01:53:23;;;;;;;147.95;40.65;;;0.80;90.70;;;;;;5056254;28;20198;-69
2020/12/01 01:55:54;;;;;;;163.10;45.47;;;0.80;90.60;;;;;;5056089;28;20017;-70
2020/12/01 01:58:23;;;;;;;234.02;51.05;;;0.80;90.60;;;;;;5055703;28;20103;-69
2020/12/01 02:01:00;;;;;;;168.65;46.70;;;0.70;90.40;;;;;;5055406;28;20025;-70
2020/12/01 02:03:39;;;;;;;121.70;47.13;;;0.60;90.70;;;;;;5056018;28;20092;-71
2020/12/01 02:06:17;;;;;;;178.45;47.55;;;0.70;90.70;;;;;;5055697;28;20033;-69
2020/12/01 02:08:47;;;;;;;322.58;59.50;;;0.60;90.40;;;;;;5054371;28;20032;-69
2020/12/01 02:11:13;;;;;;;227.35;51.47;;;0.50;90.10;;;;;;5055210;28;20029;-72
2020/12/01 02:13:50;;;;;;;152.30;49.10;;;0.50;90.50;;;;;;5055228;28;20025;-69
2020/12/01 02:16:16;;;;;;;230.63;51.42;;;0.40;90.40;;;;;;5055469;28;20087;-68
2020/12/01 02:18:41;;;;;;;159.57;47.63;;;0.30;90.30;;;;;;5053753;28;20040;-69
2020/12/01 02:21:26;;;;;;;154.90;49.13;;;0.40;90.70;;;;;;5055384;28;20029;-70
2020/12/01 02:23:51;;;;;;;169.88;51.97;;;0.30;90.40;;;;;;5055896;28;20029;-69
2020/12/01 02:26:17;;;;;;;110.45;48.40;;;0.40;90.40;;;;;;5054647;28;20036;-68
2020/12/01 02:28:43;;;;;;;109.97;50.72;;;0.30;90.50;;;;;;5055624;28;20033;-70
2020/12/01 02:31:09;;;;;;;84.10;46.22;;;0.30;90.40;;;;;;5055455;28;20057;-68
2020/12/01 02:33:34;;;;;;;92.03;49.75;;;0.30;90.50;;;;;;5055111;28;20081;-69
2020/12/01 02:36:00;;;;;;;86.65;48.38;;;0.30;90.40;;;;;;5054960;28;20025;-70
2020/12/01 02:38:26;;;;;;;90.18;46.63;;;0.30;90.10;;;;;;5054989;28;20491;-69
2020/12/01 02:40:51;;;;;;;76.60;44.65;;;0.40;90.00;;;;;;5054723;28;20028;-70
2020/12/01 02:43:17;;;;;;;79.82;45.13;;;0.30;89.00;;;;;;5053399;28;20104;-69
2020/12/01 02:45:43;;;;;;;83.45;46.55;;;0.30;90.00;;;;;;5053357;28;20028;-69
2020/12/01 02:48:09;;;;;;;84.72;48.42;;;0.30;89.70;;;;;;5054591;28;20493;-69
2020/12/01 02:50:34;;;;;;;88.43;51.42;;;0.30;90.10;;;;;;5055141;28;20028;-70
2020/12/01 02:53:00;;;;;;;85.45;49.60;;;0.30;90.10;;;;;;5053725;28;20025;-69
2020/12/01 02:55:26;;;;;;;83.00;48.20;;;0.40;89.80;;;;;;5054971;28;20111;-68
2020/12/01 02:57:52;;;;;;;86.75;52.38;;;0.30;88.90;;;;;;5055310;28;20048;-69
2020/12/01 03:00:17;;;;;;;91.50;51.75;;;0.30;89.80;;;;;;5053061;28;20359;-69
2020/12/01 03:02:43;;;;;;;91.10;51.67;;;0.30;90.10;;;;;;5054282;28;20465;-69
2020/12/01 03:05:09;;;;;;;99.90;55.30;;;0.30;88.40;;;;;;5054784;28;20473;-69
2020/12/01 03:07:34;;;;;;;97.03;54.17;;;0.20;89.20;;;;;;5054239;28;20026;-69
2020/12/01 03:10:00;;;;;;;95.50;55.13;;;0.30;89.40;;;;;;5054417;28;20048;-68
2020/12/01 03:12:28;;;;;;;96.97;54.22;;;0.20;89.00;;;;;;5054618;28;20029;-69
2020/12/01 03:14:53;;;;;;;89.40;50.30;;;0.20;89.10;;;;;;5054174;28;20025;-69
2020/12/01 03:17:19;;;;;;;99.45;53.75;;;0.20;89.20;;;;;;5054269;28;20047;-70
2020/12/01 03:19:45;;;;;;;89.45;51.30;;;0.20;88.50;;;;;;5054283;28;20029;-69
2020/12/01 03:22:10;;;;;;;92.38;52.33;;;0.20;88.00;;;;;;5053640;28;20480;-69
2020/12/01 03:24:36;;;;;;;91.25;51.80;;;0.20;88.30;;;;;;5053894;28;20059;-69
2020/12/01 03:27:02;;;;;;;91.93;51.25;;;0.20;87.80;;;;;;5054462;28;20040;-69
2020/12/01 03:29:28;;;;;;;98.15;57.17;;;0.20;88.40;;;;;;5053516;28;20465;-70
2020/12/01 03:31:53;;;;;;;101.90;55.10;;;0.20;88.60;;;;;;5053800;28;20025;-70
2020/12/01 03:34:19;;;;;;;95.45;53.72;;;0.20;88.60;;;;;;5054045;28;20544;-70
2020/12/01 03:36:45;;;;;;;100.60;58.03;;;0.20;88.70;;;;;;5053317;28;20021;-70
2020/12/01 03:39:11;;;;;;;111.75;60.92;;;0.20;88.80;;;;;;5054206;28;20061;-69
2020/12/01 03:41:37;;;;;;;111.22;61.03;;;0.20;88.40;;;;;;5053328;28;20470;-69
2020/12/01 03:44:03;;;;;;;122.25;68.97;;;0.20;88.00;;;;;;5053619;28;20021;-69
2020/12/01 03:46:28;;;;;;;107.07;59.05;;;0.20;88.70;;;;;;5053859;28;20040;-69
2020/12/01 03:48:58;;;;;;;104.57;60.33;;;0.20;88.30;;;;;;5052798;28;20571;-70
2020/12/01 03:51:25;;;;;;;110.25;60.42;;;0.20;88.20;;;;;;5052492;28;20043;-70
2020/12/01 03:53:51;;;;;;;117.78;60.42;;;0.20;87.70;;;;;;5054062;28;20029;-70
2020/12/01 03:56:18;;;;;;;116.57;63.60;;;0.20;88.20;;;;;;5051879;28;20021;-69
2020/12/01 03:58:45;;;;;;;107.00;60.30;;;0.20;87.80;;;;;;5053307;28;20055;-69
2020/12/01 04:01:11;;;;;;;112.28;62.67;;;0.20;88.40;;;;;;5053365;28;20103;-69
2020/12/01 04:03:36;;;;;;;116.43;64.03;;;0.30;88.20;;;;;;5053591;28;20025;-69
2020/12/01 04:06:05;;;;;;;105.53;60.63;;;0.20;88.10;;;;;;5053602;28;20453;-72
2020/12/01 04:08:31;;;;;;;116.68;63.58;;;0.20;87.60;;;;;;5053607;28;20107;-69
2020/12/01 04:10:58;;;;;;;121.90;66.90;;;0.20;88.60;;;;;;5053306;28;20461;-69
2020/12/01 04:13:24;;;;;;;118.10;65.30;;;0.20;88.20;;;;;;5053465;28;20029;-69
2020/12/01 04:15:49;;;;;;;122.35;66.75;;;0.30;88.00;;;;;;5051884;28;20028;-69
2020/12/01 04:18:15;;;;;;;121.43;68.15;;;0.20;87.70;;;;;;5053123;28;20037;-68
2020/12/01 04:20:41;;;;;;;119.40;66.53;;;0.10;87.80;;;;;;5053787;28;20104;-68
2020/12/01 04:23:07;;;;;;;115.63;63.75;;;0.10;87.50;;;;;;5053500;28;20029;-69
2020/12/01 04:25:32;;;;;;;113.95;61.53;;;0.10;88.00;;;;;;5051924;28;20033;-69
2020/12/01 04:27:58;;;;;;;118.93;60.85;;;0.10;87.70;;;;;;5052164;28;20036;-68
2020/12/01 04:30:25;;;;;;;114.25;62.05;;;0.10;87.80;;;;;;5053425;28;20025;-68
2020/12/01 04:32:52;;;;;;;111.38;60.47;;;0.10;87.90;;;;;;5053419;28;20071;-69
2020/12/01 04:35:19;;;;;;;107.80;60.28;;;0.10;87.10;;;;;;5053700;28;20032;-68
2020/12/01 04:37:45;;;;;;;125.63;64.38;;;0.10;87.80;;;;;;5052636;28;20040;-69
2020/12/01 04:40:16;;;;;;;105.75;56.38;;;0.10;87.90;;;;;;5052378;28;20036;-68
2020/12/01 04:42:56;;;;;;;108.95;58.00;;;0.20;87.70;;;;;;5053410;28;20025;-68
2020/12/01 04:45:22;;;;;;;110.97;58.80;;;0.10;87.80;;;;;;5053094;28;20108;-69
2020/12/01 04:47:48;;;;;;;113.28;56.53;;;0.10;87.80;;;;;;5053525;28;20112;-68
2020/12/01 04:50:25;;;;;;;107.43;56.00;;;0.10;87.90;;;;;;5053242;28;20064;-68
2020/12/01 04:53:02;;;;;;;112.32;59.33;;;0.10;87.80;;;;;;5052814;28;20044;-69
2020/12/01 04:55:58;;;;;;;107.40;61.47;;;0.00;87.80;;;;;;5053236;28;20346;-69
2020/12/01 04:58:24;;;;;;;105.30;55.65;;;0.10;88.20;;;;;;5051759;28;20053;-68
2020/12/01 05:01:02;;;;;;;116.28;58.38;;;0.10;88.00;;;;;;5053859;28;20029;-68
2020/12/01 05:03:43;;;;;;;101.03;54.58;;;0.00;87.50;;;;;;5056565;28;20462;-68
2020/12/01 05:09:43;;;;;;;102.85;53.67;;;0.10;87.60;;;;;;5055210;28;20029;-68
2020/12/01 05:12:19;;;;;;;100.45;54.00;;;0.10;87.90;;;;;;5057111;28;20468;-69
2020/12/01 05:14:55;;;;;;;104.13;52.53;;;0.10;87.70;;;;;;5056333;28;20017;-68
2020/12/01 05:17:44;;;;;;;101.35;56.05;;;0.10;87.60;;;;;;5057110;28;20033;-69
2020/12/01 05:20:11;;;;;;;100.13;51.72;;;0.00;87.50;;;;;;5056039;28;20373;-68
2020/12/01 05:22:38;;;;;;;97.22;52.63;;;0.00;87.40;;;;;;5056505;28;20025;-69
2020/12/01 05:25:15;;;;;;;91.38;51.03;;;0.00;87.40;;;;;;5055218;28;20033;-70
2020/12/01 05:27:41;;;;;;;104.50;56.25;;;0.00;87.60;;;;;;5056057;28;20044;-68
2020/12/01 05:30:18;;;;;;;94.72;52.35;;;0.00;87.80;;;;;;5056366;28;20381;-69
2020/12/01 05:33:05;;;;;;;96.30;51.60;;;0.00;87.60;;;;;;5055105;28;20120;-69
2020/12/01 05:35:33;;;;;;;95.32;51.05;;;0.00;87.20;;;;;;5054723;28;20112;-69
2020/12/01 05:38:01;;;;;;;94.03;49.95;;;0.00;87.60;;;;;;5056407;28;20389;-69
2020/12/01 05:40:30;;;;;;;96.85;51.92;;;0.00;87.50;;;;;;5054979;28;20021;-70
2020/12/01 05:42:56;;;;;;;98.82;54.10;;;0.00;87.20;;;;;;5055833;28;20021;-69
2020/12/01 05:45:35;;;;;;;100.32;51.13;;;0.00;87.60;;;;;;5056043;28;20032;-68
2020/12/01 05:48:13;;;;;;;91.65;51.58;;;0.00;87.20;;;;;;5055720;28;20126;-69
2020/12/01 05:50:55;;;;;;;91.22;49.00;;;0.00;87.30;;;;;;5055714;28;20099;-69
2020/12/01 05:53:21;;;;;;;92.30;50.58;;;0.00;87.30;;;;;;5055537;28;20025;-69
2020/12/01 05:56:01;;;;;;;88.47;50.78;;;-0.10;87.40;;;;;;5054563;28;20435;-69
2020/12/01 05:58:40;;;;;;;101.97;54.92;;;-0.10;87.40;;;;;;5054625;28;20097;-69
2020/12/01 06:01:07;;;;;;;93.45;51.50;;;-0.10;87.80;;;;;;5056140;28;20063;-69
2020/12/01 06:03:47;;;;;;;95.20;51.65;;;-0.10;87.60;;;;;;5055171;28;20025;-69
2020/12/01 06:06:14;;;;;;;97.65;54.25;;;-0.10;87.00;;;;;;5055743;28;20130;-68
2020/12/01 06:08:59;;;;;;;135.38;77.20;;;-0.20;86.30;;;;;;5055022;28;20485;-69
2020/12/01 06:11:51;;;;;;;124.88;71.95;;;-0.20;86.10;;;;;;5055749;28;20021;-69
2020/12/01 06:14:54;;;;;;;106.18;59.28;;;-0.30;86.10;;;;;;5055506;28;20082;-72
2020/12/01 06:17:32;;;;;;;96.85;51.15;;;-0.30;87.30;;;;;;5047879;28;20060;-70
2020/12/01 06:20:13;;;;;;;101.65;51.33;;;-0.20;87.20;;;;;;5054214;28;20029;-68
2020/12/01 06:23:23;;;;;;;93.15;49.00;;;-0.30;86.90;;;;;;5054028;28;20025;-69
2020/12/01 06:26:13;;;;;;;88.22;49.22;;;-0.20;86.80;;;;;;5055304;28;20035;-69
2020/12/01 06:28:48;;;;;;;86.15;48.65;;;-0.20;86.50;;;;;;5054962;28;20039;-71
2020/12/01 06:31:45;;;;;;;92.32;50.80;;;-0.20;87.00;;;;;;5053648;28;20029;-69
2020/12/01 06:34:38;;;;;;;98.10;51.85;;;-0.20;86.30;;;;;;5054530;28;20033;-69
2020/12/01 06:37:13;;;;;;;92.25;50.97;;;-0.20;86.90;;;;;;5054986;28;20021;-70
2020/12/01 06:39:44;;;;;;;95.30;51.38;;;-0.30;87.10;;;;;;5055053;28;20028;-70
2020/12/01 06:42:35;;;;;;;93.97;51.63;;;-0.20;87.00;;;;;;5055109;28;20107;-69
2020/12/01 06:45:06;;;;;;;108.10;60.08;;;-0.20;87.10;;;;;;5053359;28;20124;-69
2020/12/01 06:47:33;;;;;;;200.23;98.72;;;-0.20;87.40;;;;;;5054840;28;20037;-70
2020/12/01 06:50:10;;;;;;;156.07;79.35;;;-0.10;87.40;;;;;;5053545;28;20462;-69
2020/12/01 06:52:35;;;;;;;132.85;66.15;;;-0.10;87.10;;;;;;5053363;28;20036;-69
2020/12/01 06:55:01;;;;;;;134.45;67.93;;;0.00;87.10;;;;;;5055062;28;20043;-68
2020/12/01 06:57:34;;;;;;;140.38;71.57;;;0.00;87.10;;;;;;5054525;28;20089;-69
2020/12/01 07:00:01;;;;;;;112.45;61.47;;;0.10;87.40;;;;;;5054589;28;20461;-71
2020/12/01 07:02:32;;;;;;;105.15;56.38;;;0.10;87.50;;;;;;5053353;28;20036;-69
2020/12/01 07:05:12;;;;;;;105.63;54.15;;;0.10;87.30;;;;;;5053674;28;20032;-69
2020/12/01 07:07:42;;;;;;;104.88;57.70;;;0.10;87.20;;;;;;5054833;28;20032;-70
2020/12/01 07:10:22;;;;;;;100.45;55.55;;;0.10;87.70;;;;;;5054775;28;20449;-71
2020/12/01 07:12:54;;;;;;;100.97;54.42;;;0.20;88.00;;;;;;5054046;28;20351;-69
2020/12/01 07:15:40;;;;;;;107.18;56.20;;;0.20;88.00;;;;;;5053083;28;20116;-71
2020/12/01 07:18:19;;;;;;;123.05;62.67;;;0.20;87.90;;;;;;5052164;28;20070;-71
2020/12/01 07:21:15;;;;;;;118.88;61.88;;;0.30;88.10;;;;;;5054212;28;20025;-70
2020/12/01 07:23:51;;;;;;;111.15;60.38;;;0.40;89.00;;;;;;5053131;28;20021;-71
2020/12/01 07:26:41;;;;;;;128.60;69.00;;;0.40;88.40;;;;;;5052518;28;20029;-70
2020/12/01 07:29:15;;;;;;;142.05;77.30;;;0.40;88.70;;;;;;5053929;28;20439;-71
2020/12/01 07:31:40;;;;;;;149.50;80.45;;;0.50;88.40;;;;;;5054127;28;20027;-70
2020/12/01 07:34:24;;;;;;;142.27;77.55;;;0.50;88.80;;;;;;5052473;28;20025;-70
2020/12/01 07:36:52;;;;;;;116.90;65.40;;;0.60;89.40;;;;;;5054032;28;20025;-70
2020/12/01 07:39:26;;;;;;;137.85;71.30;;;0.50;89.40;;;;;;5052625;28;20036;-70
2020/12/01 07:41:59;;;;;;;209.98;94.38;;;0.50;89.70;;;;;;5052478;28;20082;-69
2020/12/01 07:44:30;;;;;;;175.93;84.53;;;0.60;89.70;;;;;;5053547;28;20571;-70
2020/12/01 07:47:10;;;;;;;119.18;68.15;;;0.60;89.50;;;;;;5053806;28;20024;-70
2020/12/01 07:49:36;;;;;;;125.22;69.00;;;0.60;89.80;;;;;;5053849;28;20021;-70
2020/12/01 07:52:14;;;;;;;143.05;76.60;;;0.60;90.00;;;;;;5054083;28;20025;-70
2020/12/01 07:54:46;;;;;;;153.55;82.68;;;0.60;89.90;;;;;;5053534;28;20030;-72
2020/12/01 07:57:18;;;;;;;151.00;83.32;;;0.80;89.20;;;;;;5053445;28;20056;-69
2020/12/01 07:59:45;;;;;;;168.70;91.45;;;0.80;89.20;;;;;;5054008;28;20036;-71
2020/12/01 08:02:13;;;;;;;181.30;93.70;;;0.90;90.00;;;;;;5052151;28;20028;-72
2020/12/01 08:04:39;;;;;;;234.45;107.78;;;1.00;88.70;;;;;;5053656;28;20032;-69
2020/12/01 08:07:06;;;;;;;220.68;108.43;;;1.00;89.60;;;;;;5054183;28;20029;-70
2020/12/01 08:09:32;;;;;;;154.30;90.18;;;1.00;90.20;;;;;;5053570;28;20021;-74
2020/12/01 08:12:06;;;;;;;227.35;102.35;;;1.00;89.90;;;;;;5053908;28;20100;-71
2020/12/01 08:14:32;;;;;;;214.00;98.68;;;1.00;90.30;;;;;;5052371;28;20112;-71
2020/12/01 08:17:29;;;;;;;142.55;85.03;;;1.00;90.40;;;;;;5053108;28;20018;-72
2020/12/01 08:19:56;;;;;;;120.88;65.78;;;0.90;90.10;;;;;;5051674;28;20461;-71
2020/12/01 08:22:31;;;;;;;111.38;67.03;;;1.00;90.60;;;;;;5053490;28;20465;-72
2020/12/01 08:25:02;;;;;;;117.75;63.33;;;1.10;90.10;;;;;;5053313;28;20021;-71
2020/12/01 08:28:01;;;;;;;117.60;65.35;;;1.20;90.20;;;;;;5053031;28;20029;-71
2020/12/01 08:30:48;;;;;;;107.38;60.75;;;1.30;89.90;;;;;;5050759;28;20036;-71
2020/12/01 08:33:27;;;;;;;127.85;72.30;;;1.40;90.00;;;;;;5053474;28;20039;-71
2020/12/01 08:36:03;;;;;;;161.57;82.88;;;1.50;90.10;;;;;;5054735;28;20033;-71
2020/12/01 08:38:58;;;;;;;122.38;69.03;;;1.70;90.10;;;;;;5057599;28;20028;-70
2020/12/01 08:41:46;;;;;;;171.68;81.55;;;1.70;90.00;;;;;;5056553;28;20354;-71
2020/12/01 08:44:28;;;;;;;177.65;83.35;;;1.70;89.10;;;;;;5056974;28;20029;-70
2020/12/01 08:46:54;;;;;;;123.80;69.35;;;1.80;89.20;;;;;;5056965;28;20032;-70
2020/12/01 08:49:23;;;;;;;180.65;97.18;;;2.00;89.10;;;;;;5056885;28;20029;-70
2020/12/01 08:51:58;;;;;;;157.23;78.07;;;2.20;88.90;;;;;;5057119;28;20056;-70
2020/12/01 08:54:36;;;;;;;176.15;86.20;;;2.40;87.70;;;;;;5056773;28;20106;-69
2020/12/01 08:57:04;;;;;;;143.02;72.75;;;2.40;87.30;;;;;;5056220;28;20045;-70
2020/12/01 08:59:42;;;;;;;142.88;74.10;;;2.70;86.80;;;;;;5055617;28;20029;-69
2020/12/01 09:02:10;;;;;;;109.35;59.03;;;2.90;85.30;;;;;;5056509;28;20035;-69
2020/12/01 09:04:38;;;;;;;110.35;67.05;;;3.20;84.80;;;;;;5056249;28;20376;-69
2020/12/01 09:07:21;;;;;;;120.22;72.50;;;3.60;87.10;;;;;;5051493;28;20370;-66
2020/12/01 09:09:49;;;;;;;91.72;52.83;;;3.80;84.70;;;;;;5055179;28;20021;-68
2020/12/01 09:13:07;;;;;;;89.80;52.72;;;4.30;81.80;;;;;;5056204;28;20036;-69
2020/12/01 09:15:34;;;;;;;87.60;52.85;;;4.40;80.10;;;;;;5059334;28;20051;-69
2020/12/01 09:23:21;;;;;;;81.53;50.97;;;4.90;78.80;;;;;;5056537;28;20021;-68
2020/12/01 09:25:49;;;;;;;80.05;50.65;;;5.10;78.50;;;;;;5054801;28;20032;-68
2020/12/01 09:28:21;;;;;;;97.45;59.30;;;5.50;79.30;;;;;;5056438;28;20025;-69
2020/12/01 09:30:48;;;;;;;95.82;60.00;;;5.60;76.20;;;;;;5056442;28;20025;-67
2020/12/01 09:33:18;;;;;;;74.90;44.63;;;5.80;78.50;;;;;;5055713;28;20021;-71
2020/12/01 09:35:44;;;;;;;74.90;46.38;;;5.80;73.80;;;;;;5054981;28;20029;-66
2020/12/01 09:38:10;;;;;;;68.82;44.78;;;5.90;74.50;;;;;;5055695;28;20025;-69
2020/12/01 09:40:37;;;;;;;82.60;51.42;;;6.10;74.10;;;;;;5055811;28;20354;-70
2020/12/01 09:43:33;;;;;;;73.35;47.85;;;6.20;72.50;;;;;;5054794;28;20124;-69
2020/12/01 09:45:52;;;;;;;71.63;46.30;;;6.40;74.70;;;;;;5054582;28;20029;-69
2020/12/01 09:50:44;;;;;;;75.70;46.97;;;6.40;73.10;;;;;;5055115;28;20065;-69
2020/12/01 09:56:32;;;;;;;77.43;51.58;;;6.50;70.60;;;;;;5055525;28;20488;-70
2020/12/01 10:09:59;;;;;;;69.45;45.10;;;7.40;68.60;;;;;;5055454;28;20029;-72
2020/12/01 10:27:09;;;;;;;87.55;52.97;;;7.70;64.50;;;;;;5055166;28;20392;-70
2020/12/01 10:37:03;;;;;;;97.28;52.40;;;8.00;67.30;;;;;;5055123;28;20108;-67
2020/12/01 10:39:28;;;;;;;84.63;50.63;;;8.40;64.10;;;;;;5053671;28;20120;-70
2020/12/01 10:41:54;;;;;;;165.68;86.80;;;8.50;65.30;;;;;;5053440;28;20163;-69
2020/12/01 10:44:21;;;;;;;82.45;48.65;;;8.30;63.70;;;;;;5053698;28;20029;-69
2020/12/01 10:46:48;;;;;;;176.15;91.65;;;8.50;64.70;;;;;;5054687;28;20025;-68
2020/12/01 10:49:15;;;;;;;176.82;91.95;;;8.10;61.90;;;;;;5053096;28;20032;-70
2020/12/01 10:51:41;;;;;;;186.68;99.18;;;8.50;64.70;;;;;;5055184;28;20412;-66
2020/12/01 10:54:07;;;;;;;80.40;48.60;;;8.30;62.30;;;;;;5054465;28;20021;-67
2020/12/01 10:56:33;;;;;;;89.07;53.17;;;8.50;63.70;;;;;;5052943;28;20049;-67
2020/12/01 10:58:59;;;;;;;87.93;51.90;;;8.60;61.30;;;;;;5053915;28;20090;-68
2020/12/01 11:01:24;;;;;;;87.90;52.33;;;8.40;63.90;;;;;;5053413;28;20420;-67
2020/12/01 11:03:50;;;;;;;81.00;48.63;;;8.30;61.40;;;;;;5054291;28;20047;-67
2020/12/01 11:06:16;;;;;;;105.60;56.65;;;8.30;63.40;;;;;;5053293;28;20029;-68
2020/12/01 11:08:42;;;;;;;64.10;38.45;;;8.80;61.90;;;;;;5053279;28;20032;-70
2020/12/01 11:11:07;;;;;;;69.40;40.15;;;9.20;60.60;;;;;;5053924;28;20090;-68
2020/12/01 11:13:33;;;;;;;62.00;37.33;;;9.70;62.60;;;;;;5054988;28;20112;-67
2020/12/01 11:15:59;;;;;;;54.88;36.95;;;9.70;60.30;;;;;;5051481;28;20025;-68
2020/12/01 11:18:24;;;;;;;96.25;58.28;;;10.00;59.20;;;;;;5052672;28;20037;-69
2020/12/01 11:20:50;;;;;;;105.00;60.92;;;10.10;58.40;;;;;;5053997;28;20412;-65
2020/12/01 11:23:16;;;;;;;80.80;49.22;;;10.10;56.60;;;;;;5052990;28;20036;-66
2020/12/01 11:25:42;;;;;;;57.58;36.95;;;10.20;55.60;;;;;;5054167;28;20036;-68
2020/12/01 11:28:07;;;;;;;110.60;61.53;;;9.70;53.30;;;;;;5053649;28;20028;-66
2020/12/01 11:30:33;;;;;;;108.18;64.88;;;9.80;55.10;;;;;;5052852;28;20033;-69
2020/12/01 11:32:59;;;;;;;83.28;50.92;;;9.50;53.70;;;;;;5054077;28;20050;-68
2020/12/01 11:35:25;;;;;;;121.57;73.80;;;9.30;53.60;;;;;;5053760;28;20043;-68
2020/12/01 11:37:52;;;;;;;39.13;26.05;;;9.40;55.60;;;;;;5052390;28;20049;-68
2020/12/01 11:40:18;;;;;;;61.35;33.45;;;9.00;54.00;;;;;;5053840;28;20366;-68
2020/12/01 11:42:44;;;;;;;67.55;40.20;;;9.00;52.90;;;;;;5053511;28;20131;-70
2020/12/01 11:45:12;;;;;;;79.90;44.42;;;9.00;53.50;;;;;;5053181;28;20422;-66
2020/12/01 11:47:38;;;;;;;95.10;60.53;;;9.50;53.60;;;;;;5053447;28;20079;-67
2020/12/01 11:50:06;;;;;;;60.55;35.97;;;9.80;52.50;;;;;;5052496;28;20033;-67
2020/12/01 11:52:32;;;;;;;53.22;33.92;;;10.30;51.70;;;;;;5052684;28;20489;-68
2020/12/01 11:54:57;;;;;;;47.13;32.00;;;10.40;51.10;;;;;;5053824;28;20025;-67
2020/12/01 11:57:23;;;;;;;60.63;37.42;;;10.60;51.90;;;;;;5053615;28;20081;-69
2020/12/01 11:59:49;;;;;;;58.63;41.47;;;10.50;50.70;;;;;;5052155;28;20032;-69
2020/12/01 12:02:15;;;;;;;43.85;30.92;;;10.40;51.20;;;;;;5054024;28;20060;-71
2020/12/01 12:04:40;;;;;;;54.90;34.03;;;10.60;51.60;;;;;;5054004;28;20480;-70
2020/12/01 12:07:06;;;;;;;47.78;31.73;;;11.10;53.70;;;;;;5052933;28;20056;-71
2020/12/01 12:09:32;;;;;;;49.50;34.05;;;10.70;48.10;;;;;;5053258;28;20029;-69
2020/12/01 12:11:58;;;;;;;70.47;48.95;;;10.50;48.50;;;;;;5053102;28;20074;-69
2020/12/01 12:14:23;;;;;;;60.47;41.25;;;10.20;49.20;;;;;;5053470;28;20087;-68
2020/12/01 12:16:49;;;;;;;44.55;29.95;;;10.30;51.30;;;;;;5053226;28;20029;-69
2020/12/01 12:19:15;;;;;;;39.60;25.58;;;10.50;50.50;;;;;;5052191;28;20056;-70
2020/12/01 12:21:41;;;;;;;64.30;46.88;;;10.80;50.70;;;;;;5053186;28;20036;-70
2020/12/01 12:24:06;;;;;;;50.03;35.45;;;10.50;49.30;;;;;;5051869;28;20033;-70
2020/12/01 12:26:32;;;;;;;49.22;32.70;;;10.20;50.00;;;;;;5052896;28;20029;-70
2020/12/01 12:28:58;;;;;;;51.67;33.25;;;10.30;50.10;;;;;;5053183;28;20040;-71
2020/12/01 12:31:24;;;;;;;56.72;38.80;;;10.20;51.90;;;;;;5052188;28;20029;-71
2020/12/01 12:33:49;;;;;;;54.05;33.20;;;10.00;49.20;;;;;;5052840;28;20033;-70
2020/12/01 12:36:16;;;;;;;48.97;33.22;;;9.70;49.80;;;;;;5053434;28;20032;-71
2020/12/01 12:38:41;;;;;;;54.70;37.63;;;9.80;50.90;;;;;;5052995;28;20029;-70
2020/12/01 12:41:07;;;;;;;52.97;31.02;;;9.80;49.20;;;;;;5053088;28;20036;-69
2020/12/01 12:43:33;;;;;;;58.40;34.97;;;9.60;49.50;;;;;;5053386;28;20108;-70
2020/12/01 12:45:59;;;;;;;41.40;23.13;;;9.40;49.10;;;;;;5053152;28;20032;-69
2020/12/01 12:48:27;;;;;;;40.53;26.05;;;8.90;48.70;;;;;;5052985;28;20032;-70
2020/12/01 12:50:52;;;;;;;55.80;31.33;;;9.00;50.00;;;;;;5053287;28;20025;-68
2020/12/01 12:53:18;;;;;;;42.13;25.27;;;9.00;51.60;;;;;;5053284;28;20369;-70
2020/12/01 12:55:45;;;;;;;33.83;22.55;;;8.60;51.00;;;;;;5052956;28;20458;-69
2020/12/01 12:58:11;;;;;;;38.33;23.27;;;8.20;51.70;;;;;;5053243;28;20483;-67
2020/12/01 13:00:37;;;;;;;92.65;44.50;;;7.70;52.80;;;;;;5053175;28;20100;-71
2020/12/01 13:03:03;;;;;;;123.70;58.63;;;7.60;53.80;;;;;;5052439;28;20079;-68
2020/12/01 13:05:29;;;;;;;62.35;31.35;;;7.60;54.30;;;;;;5053227;28;20036;-70
2020/12/01 13:07:56;;;;;;;35.97;23.52;;;7.30;53.90;;;;;;5051862;28;20538;-69
2020/12/01 13:10:21;;;;;;;36.88;24.52;;;7.00;53.80;;;;;;5052782;28;20029;-69
2020/12/01 13:12:47;;;;;;;43.25;26.48;;;6.90;54.60;;;;;;5051018;28;20032;-69
2020/12/01 13:15:15;;;;;;;38.22;25.50;;;7.00;55.00;;;;;;5052150;28;20104;-71
2020/12/01 13:17:40;;;;;;;36.50;23.25;;;7.20;56.20;;;;;;5052174;28;20044;-70
2020/12/01 13:20:12;;;;;;;52.60;33.63;;;7.20;58.20;;;;;;5053104;28;20029;-68
2020/12/01 13:22:37;;;;;;;47.38;30.45;;;7.30;61.10;;;;;;5055306;28;20111;-68
2020/12/01 13:25:03;;;;;;;46.30;30.23;;;7.30;63.10;;;;;;5055456;28;20060;-69
2020/12/01 13:27:29;;;;;;;50.47;32.15;;;7.30;63.80;;;;;;5055937;28;20091;-68
2020/12/01 13:29:55;;;;;;;51.45;33.38;;;7.40;64.40;;;;;;5056148;28;20029;-68
2020/12/01 13:32:22;;;;;;;46.90;31.88;;;7.30;64.10;;;;;;5056682;28;20025;-70